createdAt,value
2019-02-18T00:03:54.274Z,44.10
2019-02-18T00:07:58.836Z,44.70
2019-02-18T00:12:03.931Z,44.70
2019-02-18T00:16:08.503Z,44.30
2019-02-18T00:20:13.538Z,44.40
2019-02-18T00:24:18.264Z,44.70
2019-02-18T00:28:22.822Z,44.50
2019-02-18T00:32:27.460Z,44.70
2019-02-18T00:36:32.036Z,45.00
2019-02-18T00:40:37.831Z,45.00
2019-02-18T00:44:42.387Z,45.30
2019-02-18T00:48:46.938Z,45.10
2019-02-18T00:52:52.897Z,44.80
2019-02-18T00:56:57.462Z,44.80
2019-02-18T01:01:02.236Z,45.00
2019-02-18T01:05:07.320Z,45.90
2019-02-18T01:09:11.951Z,45.20
2019-02-18T01:13:16.848Z,45.50
2019-02-18T01:17:21.391Z,46.00
2019-02-18T01:21:26.109Z,46.50
2019-02-18T01:25:30.837Z,45.90
2019-02-18T01:29:35.584Z,47.10
2019-02-18T01:33:40.451Z,48.30
2019-02-18T01:37:46.272Z,46.80
2019-02-18T01:41:51.777Z,47.60
2019-02-18T01:45:57.652Z,45.90
2019-02-18T01:50:02.687Z,46.20
2019-02-18T01:54:08.428Z,45.60
2019-02-18T01:58:13.276Z,45.50
2019-02-18T02:02:18.163Z,45.50
2019-02-18T02:06:22.793Z,45.90
2019-02-18T02:10:27.661Z,46.00
2019-02-18T02:14:32.223Z,46.60
2019-02-18T02:18:36.780Z,47.30
2019-02-18T02:22:41.517Z,47.20
2019-02-18T02:26:46.160Z,47.20
2019-02-18T02:30:50.896Z,47.90
2019-02-18T02:34:55.528Z,47.70
2019-02-18T02:39:00.116Z,47.70
2019-02-18T02:43:04.781Z,47.70
2019-02-18T02:47:09.357Z,47.70
2019-02-18T02:51:14.131Z,47.90
2019-02-18T02:55:18.701Z,47.90
2019-02-18T02:59:23.255Z,47.90
2019-02-18T03:03:27.812Z,48.00
2019-02-18T03:07:32.364Z,47.90
2019-02-18T03:11:37.152Z,48.70
2019-02-18T03:15:41.711Z,48.10
2019-02-18T03:19:47.409Z,48.30
2019-02-18T03:23:51.965Z,48.90
2019-02-18T03:28:15.980Z,49.20
2019-02-18T03:32:20.672Z,49.10
2019-02-18T03:36:25.256Z,49.20
2019-02-18T03:40:30.070Z,49.20
2019-02-18T03:44:34.620Z,49.20
2019-02-18T03:48:39.171Z,49.70
2019-02-18T03:52:43.982Z,50.40
2019-02-18T03:56:48.525Z,50.80
2019-02-18T04:00:53.332Z,50.60
2019-02-18T04:04:58.051Z,50.20
2019-02-18T04:09:02.793Z,51.00
2019-02-18T04:13:08.494Z,51.40
2019-02-18T04:17:13.030Z,51.40
2019-02-18T04:21:17.873Z,51.10
2019-02-18T04:25:22.428Z,51.30
2019-02-18T04:29:27.235Z,51.60
2019-02-18T04:33:31.804Z,52.10
2019-02-18T04:37:37.111Z,51.90
2019-02-18T04:41:41.760Z,51.90
2019-02-18T04:45:46.325Z,52.00
2019-02-18T04:49:51.121Z,52.20
2019-02-18T04:53:55.684Z,52.20
2019-02-18T04:58:00.295Z,52.40
2019-02-18T05:02:05.066Z,52.00
2019-02-18T05:06:09.628Z,51.60
2019-02-18T05:10:14.425Z,51.90
2019-02-18T05:14:18.987Z,52.40
2019-02-18T05:18:23.546Z,52.80
2019-02-18T05:22:29.507Z,52.90
2019-02-18T05:26:34.067Z,52.80
2019-02-18T05:30:38.897Z,52.70
2019-02-18T05:34:43.464Z,52.50
2019-02-18T05:38:48.293Z,52.30
2019-02-18T05:42:53.112Z,52.40
2019-02-18T05:46:57.641Z,52.40
2019-02-18T05:51:02.475Z,52.80
2019-02-18T05:55:07.085Z,53.30
2019-02-18T05:59:11.876Z,53.20
2019-02-18T06:03:16.429Z,53.60
2019-02-18T06:07:21.034Z,53.50
2019-02-18T06:11:25.780Z,53.40
2019-02-18T06:15:30.557Z,54.30
2019-02-18T06:19:35.138Z,54.90
2019-02-18T06:23:40.724Z,54.90
2019-02-18T06:27:45.256Z,54.60
2019-02-18T06:31:50.648Z,54.40
2019-02-18T06:35:55.230Z,54.60
2019-02-18T06:39:59.844Z,55.50
2019-02-18T06:44:05.958Z,55.30
2019-02-18T06:48:23.539Z,55.10
2019-02-18T06:52:28.193Z,55.50
2019-02-18T06:56:50.613Z,56.00
2019-02-18T07:01:02.865Z,56.00
2019-02-18T07:05:31.559Z,56.10
2019-02-18T07:09:58.298Z,55.90
2019-02-18T07:14:02.811Z,55.40
2019-02-18T07:18:07.357Z,55.10
2019-02-18T07:22:12.455Z,55.00
2019-02-18T07:26:17.304Z,54.70
2019-02-18T07:35:32.080Z,54.00
2019-02-18T07:40:07.368Z,54.70
2019-02-18T07:44:11.922Z,54.40
2019-02-18T07:48:16.456Z,54.80
2019-02-18T07:52:50.718Z,54.80
2019-02-18T07:56:55.299Z,55.10
2019-02-18T08:01:33.359Z,54.20
2019-02-18T08:05:37.914Z,54.00
2019-02-18T08:10:15.631Z,54.00
2019-02-18T08:14:20.174Z,53.10
2019-02-18T08:18:24.756Z,51.90
2019-02-18T08:22:59.293Z,51.30
2019-02-18T08:27:03.828Z,50.60
2019-02-18T08:31:08.687Z,50.30
2019-02-18T08:35:13.243Z,49.90
2019-02-18T08:39:17.812Z,49.40
2019-02-18T08:43:22.355Z,48.60
2019-02-18T08:47:26.907Z,48.00
2019-02-18T08:51:31.460Z,48.50
2019-02-18T08:55:35.992Z,47.30
2019-02-18T08:59:40.522Z,46.40
2019-02-18T09:03:45.052Z,45.20
2019-02-18T09:07:49.597Z,44.90
2019-02-18T09:11:56.935Z,44.60
2019-02-18T09:16:01.475Z,43.70
2019-02-18T09:20:06.692Z,42.90
2019-02-18T09:24:24.728Z,41.60
2019-02-18T09:28:29.263Z,41.00
2019-02-18T09:32:33.808Z,40.70
2019-02-18T09:36:38.641Z,40.40
2019-02-18T09:40:46.108Z,40.10
2019-02-18T09:44:49.479Z,40.30
2019-02-18T09:48:54.039Z,38.60
2019-02-18T09:52:58.656Z,38.40
2019-02-18T09:57:03.333Z,38.40
2019-02-18T10:01:07.906Z,38.10
2019-02-18T10:05:12.492Z,37.90
2019-02-18T10:09:17.384Z,36.80
2019-02-18T10:13:22.044Z,36.50
2019-02-18T10:17:26.651Z,35.70
2019-02-18T10:21:31.176Z,35.10
2019-02-18T10:25:35.701Z,34.60
2019-02-18T10:29:40.315Z,35.00
2019-02-18T10:33:44.861Z,35.20
2019-02-18T10:37:55.004Z,35.30
2019-02-18T10:41:55.772Z,33.90
2019-02-18T10:46:00.320Z,34.80
2019-02-18T10:50:05.872Z,34.70
2019-02-18T10:54:10.401Z,33.80
2019-02-18T10:58:15.020Z,33.60
2019-02-18T11:02:19.901Z,32.00
2019-02-18T11:06:24.572Z,31.80
2019-02-18T11:10:29.107Z,33.20
2019-02-18T11:14:33.682Z,31.60
2019-02-18T11:18:38.296Z,31.40
2019-02-18T11:22:42.852Z,31.00
2019-02-18T11:26:47.396Z,31.50
2019-02-18T11:30:51.931Z,30.90
2019-02-18T11:34:56.477Z,30.50
2019-02-18T11:39:01.029Z,30.40
2019-02-18T11:43:07.265Z,29.80
2019-02-18T11:47:11.795Z,30.10
2019-02-18T11:51:17.156Z,28.90
2019-02-18T11:55:21.697Z,28.80
2019-02-18T11:59:26.240Z,29.10
2019-02-18T12:03:30.824Z,28.30
2019-02-18T12:07:35.369Z,27.90
2019-02-18T12:11:40.204Z,27.20
2019-02-18T12:15:44.732Z,26.40
2019-02-18T12:19:49.907Z,25.50
2019-02-18T12:23:54.535Z,25.80
2019-02-18T12:27:59.080Z,28.50
2019-02-18T12:32:03.633Z,28.80
2019-02-18T12:36:08.265Z,28.50
2019-02-18T12:40:12.872Z,28.90
2019-02-18T12:44:17.417Z,27.90
2019-02-18T12:48:21.972Z,27.20
2019-02-18T12:52:26.537Z,25.90
2019-02-18T12:56:31.140Z,26.10
2019-02-18T13:00:36.185Z,26.20
2019-02-18T13:04:40.802Z,26.10
2019-02-18T13:08:45.477Z,24.20
2019-02-18T13:12:50.091Z,22.80
2019-02-18T13:16:55.902Z,21.40
2019-02-18T13:21:00.525Z,19.80
2019-02-18T13:25:05.224Z,18.70
2019-02-18T13:29:09.769Z,17.60
2019-02-18T13:33:14.324Z,16.70
2019-02-18T13:37:18.920Z,15.60
2019-02-18T13:41:23.471Z,15.20
2019-02-18T13:45:28.415Z,14.30
2019-02-18T13:49:33.059Z,14.90
2019-02-18T13:53:37.686Z,14.00
2019-02-18T13:57:42.314Z,14.10
2019-02-18T14:01:46.930Z,14.20
2019-02-18T14:05:51.604Z,14.80
2019-02-18T14:09:56.233Z,14.60
2019-02-18T14:14:02.505Z,14.50
2019-02-18T14:18:07.047Z,14.20
2019-02-18T14:22:12.633Z,14.10
2019-02-18T14:26:17.180Z,14.40
2019-02-18T14:30:21.752Z,14.40
2019-02-18T14:34:26.306Z,14.40
2019-02-18T14:38:31.095Z,14.50
2019-02-18T14:42:35.631Z,14.30
2019-02-18T14:46:40.184Z,14.40
2019-02-18T14:50:45.070Z,14.60
2019-02-18T14:54:49.691Z,14.90
2019-02-18T14:58:54.228Z,15.40
2019-02-18T15:02:58.873Z,16.20
2019-02-18T15:07:03.999Z,16.80
2019-02-18T15:11:08.545Z,17.20
2019-02-18T15:15:13.090Z,17.80
2019-02-18T15:19:17.629Z,18.40
2019-02-18T15:23:22.260Z,18.80
2019-02-18T15:27:26.868Z,19.50
2019-02-18T15:31:31.443Z,20.20
2019-02-18T15:35:36.014Z,21.10
2019-02-18T15:39:40.708Z,21.20
2019-02-18T15:43:46.804Z,22.00
2019-02-18T15:47:51.336Z,22.60
2019-02-18T15:51:55.933Z,22.50
2019-02-18T15:56:00.545Z,22.50
2019-02-18T16:00:06.791Z,23.00
2019-02-18T16:04:12.957Z,23.50
2019-02-18T16:08:18.583Z,23.60
2019-02-18T16:12:24.706Z,24.00
2019-02-18T16:16:29.608Z,24.60
2019-02-18T16:20:34.187Z,24.70
2019-02-18T16:24:38.724Z,25.40
2019-02-18T16:28:43.264Z,25.70
2019-02-18T16:32:47.887Z,26.80
2019-02-18T16:36:52.448Z,26.70
2019-02-18T16:40:56.992Z,27.10
2019-02-18T16:45:01.921Z,27.50
2019-02-18T16:49:06.467Z,28.10
2019-02-18T16:53:11.077Z,28.30
2019-02-18T16:57:15.695Z,29.10
2019-02-18T17:01:20.247Z,29.60
2019-02-18T17:05:24.804Z,30.00
2019-02-18T17:09:29.351Z,31.20
2019-02-18T17:13:33.922Z,31.80
2019-02-18T17:17:38.476Z,32.40
2019-02-18T17:21:43.104Z,32.30
2019-02-18T17:25:47.667Z,32.60
2019-02-18T17:29:52.236Z,32.70
2019-02-18T17:33:57.227Z,33.00
2019-02-18T17:38:01.800Z,33.30
2019-02-18T17:42:06.427Z,33.80
2019-02-18T17:46:10.978Z,34.40
2019-02-18T17:50:15.544Z,34.60
2019-02-18T17:54:20.169Z,34.70
2019-02-18T17:58:24.704Z,35.20
2019-02-18T18:02:30.428Z,35.60
2019-02-18T18:06:34.981Z,36.10
2019-02-18T18:10:39.535Z,36.50
2019-02-18T18:14:44.107Z,37.10
2019-02-18T18:18:48.905Z,37.60
2019-02-18T18:22:53.489Z,37.60
2019-02-18T18:26:58.040Z,38.00
2019-02-18T18:31:02.614Z,38.40
2019-02-18T18:35:08.348Z,38.50
2019-02-18T18:39:12.909Z,38.60
2019-02-18T18:43:17.472Z,38.50
2019-02-18T18:47:22.024Z,38.20
2019-02-18T18:51:26.576Z,39.20
2019-02-18T18:55:31.609Z,40.20
2019-02-18T18:59:36.149Z,40.90
2019-02-18T19:03:40.696Z,41.10
2019-02-18T19:07:45.275Z,40.20
2019-02-18T19:11:49.959Z,41.40
2019-02-18T19:15:55.264Z,41.80
2019-02-18T19:19:59.928Z,41.80
2019-02-18T19:24:05.085Z,42.00
2019-02-18T19:28:10.241Z,41.70
2019-02-18T19:32:15.990Z,42.10
2019-02-18T19:36:20.596Z,41.80
2019-02-18T19:40:25.425Z,40.90
2019-02-18T19:44:30.525Z,40.70
2019-02-18T19:48:35.435Z,41.30
2019-02-18T19:52:40.208Z,40.70
2019-02-18T19:56:45.253Z,41.50
2019-02-18T20:00:50.065Z,41.60
2019-02-18T20:04:55.746Z,41.70
2019-02-18T20:09:01.460Z,41.90
2019-02-18T20:13:07.569Z,41.60
2019-02-18T20:17:13.208Z,41.80
2019-02-18T20:21:18.705Z,41.90
2019-02-18T20:25:23.329Z,42.30
2019-02-18T20:29:28.374Z,42.80
2019-02-18T20:33:36.219Z,43.20
2019-02-18T20:37:40.846Z,42.80
2019-02-18T20:41:47.256Z,42.70
2019-02-18T20:45:51.840Z,42.90
2019-02-18T20:49:56.632Z,43.20
2019-02-18T20:54:01.206Z,42.00
2019-02-18T20:58:06.229Z,41.80
2019-02-18T21:02:11.085Z,41.40
2019-02-18T21:06:15.685Z,43.20
2019-02-18T21:10:20.468Z,43.10
2019-02-18T21:14:25.040Z,43.90
2019-02-18T21:18:29.587Z,44.00
2019-02-18T21:22:34.434Z,44.20
2019-02-18T21:26:39.706Z,44.40
2019-02-18T21:30:44.816Z,45.00
2019-02-18T21:34:49.885Z,45.20
2019-02-18T21:38:54.957Z,45.60
2019-02-18T21:42:59.802Z,47.20
2019-02-18T21:47:06.379Z,46.50
2019-02-18T21:51:11.387Z,46.10
2019-02-18T21:55:16.196Z,47.10
2019-02-18T21:59:20.753Z,48.40
2019-02-18T22:03:25.892Z,47.90
2019-02-18T22:07:30.501Z,47.80
2019-02-18T22:11:35.067Z,47.90
2019-02-18T22:15:39.621Z,48.00
2019-02-18T22:19:44.832Z,47.60
2019-02-18T22:23:49.615Z,48.20
2019-02-18T22:27:54.297Z,47.50
2019-02-18T22:31:59.232Z,47.00
2019-02-18T22:36:04.249Z,47.10
2019-02-18T22:40:08.971Z,47.50
2019-02-18T22:44:13.684Z,47.30
2019-02-18T22:48:19.438Z,47.60
2019-02-18T22:52:24.140Z,49.00
2019-02-18T22:56:29.303Z,49.30
2019-02-18T23:00:57.591Z,49.20
2019-02-18T23:05:02.165Z,48.80
2019-02-18T23:09:10.578Z,48.30
2019-02-18T23:13:15.201Z,48.50
2019-02-18T23:17:20.043Z,48.80
2019-02-18T23:21:25.498Z,49.20
2019-02-18T23:25:30.351Z,49.10
2019-02-18T23:29:35.864Z,49.00
2019-02-18T23:33:40.694Z,49.20
2019-02-18T23:37:45.596Z,49.70
2019-02-18T23:41:50.420Z,50.10
2019-02-18T23:45:56.277Z,49.80
2019-02-18T23:50:02.161Z,48.70
2019-02-18T23:54:06.895Z,48.70
2019-02-18T23:58:11.609Z,48.50
